Terminal Aerodrome Forecast
Issued by NWS

Home | Current Version | Previous Version | Text Only | Print | Product List | Glossary Off
Versions: 1 2 3 4 5 6 7 8 9 10 11 12 13 14 15 16

000
FTUS43 KICT 270500
TAFSLN
TAF
KSLN 270520Z 2706/2806 03013KT P6SM SCT120
     FM271500 02014G19KT P6SM BKN120
     FM272200 01010KT P6SM BKN120=

USA.gov is the U.S. government's official web portal to all federal, state and local government web resources and services.